Time;durP1;ratioP1;P1;durP2;ratioP2;P2;SDS_P1;SDS_P2;PMS_P1;PMS_P2;Temp;Humidity;BMP_temperature;BMP_pressure;BME280_temperature;BME280_humidity;BME280_pressure;Samples;Min_cycle;Max_cycle;Signal;HPM_P1;HPM_P2
2022/08/26 00:00:33;;;;;;;10.18;9.13;;;;;;;;;;5138250;27;20202;-69
2022/08/26 00:03:01;;;;;;;9.00;8.02;;;;;;;;;;5138639;27;20202;-70
2022/08/26 00:05:28;;;;;;;9.82;8.82;;;;;;;;;;5138380;27;20263;-70
2022/08/26 00:07:56;;;;;;;10.38;8.23;;;;;;;;;;5138318;27;20217;-70
2022/08/26 00:10:24;;;;;;;9.35;8.43;;;;;;;;;;5138403;27;20210;-70
2022/08/26 00:12:51;;;;;;;10.20;9.20;;;;;;;;;;5138094;27;20257;-70
2022/08/26 00:15:21;;;;;;;9.25;8.23;;;;;;;;;;5137953;27;20574;-70
2022/08/26 00:17:49;;;;;;;9.52;8.57;;;;;;;;;;5126652;28;20195;-70
2022/08/26 00:20:19;;;;;;;10.60;8.98;;;;;;;;;;5137999;28;20202;-70
2022/08/26 00:22:46;;;;;;;9.38;8.57;;;;;;;;;;5138413;27;20309;-69
2022/08/26 00:25:15;;;;;;;9.90;8.90;;;;;;;;;;5138114;27;20210;-69
2022/08/26 00:27:42;;;;;;;10.00;8.98;;;;;;;;;;5137902;28;20234;-70
2022/08/26 00:30:12;;;;;;;10.15;9.15;;;;;;;;;;5138111;28;20445;-70
2022/08/26 00:32:41;;;;;;;10.30;9.15;;;;;;;;;;5138447;28;20283;-70
2022/08/26 00:35:09;;;;;;;10.70;8.75;;;;;;;;;;5138008;27;20213;-70
2022/08/26 00:37:37;;;;;;;10.25;9.25;;;;;;;;;;5137966;28;20198;-70
2022/08/26 00:40:04;;;;;;;10.85;8.75;;;;;;;;;;5137787;27;20210;-69
2022/08/26 00:42:32;;;;;;;9.70;8.80;;;;;;;;;;5137204;27;20242;-70
2022/08/26 00:44:59;;;;;;;9.57;8.57;;;;;;;;;;5128504;28;20206;-70
2022/08/26 00:47:31;;;;;;;9.73;8.73;;;;;;;;;;5137009;28;20223;-70
2022/08/26 00:50:00;;;;;;;10.05;9.05;;;;;;;;;;5120623;28;20241;-70
2022/08/26 00:52:28;;;;;;;9.93;8.93;;;;;;;;;;5121102;28;20203;-70
2022/08/26 00:55:00;;;;;;;9.90;8.90;;;;;;;;;;5121232;28;20210;-70
2022/08/26 00:57:27;;;;;;;9.30;8.40;;;;;;;;;;5121201;28;20251;-70
2022/08/26 00:59:57;;;;;;;10.32;8.93;;;;;;;;;;5121204;28;20244;-70
2022/08/26 01:02:24;;;;;;;11.88;8.60;;;;;;;;;;5120955;28;20211;-69
2022/08/26 01:04:54;;;;;;;9.52;8.55;;;;;;;;;;5120748;28;20203;-69
2022/08/26 01:07:22;;;;;;;10.00;8.73;;;;;;;;;;5120982;28;20810;-69
2022/08/26 01:09:50;;;;;;;9.70;8.75;;;;;;;;;;5121136;28;20203;-70
2022/08/26 01:12:17;;;;;;;9.95;9.00;;;;;;;;;;5135680;27;20198;-70
2022/08/26 01:14:44;;;;;;;9.50;8.50;;;;;;;;;;5141766;27;20271;-70
2022/08/26 01:17:12;;;;;;;9.50;8.57;;;;;;;;;;5137066;27;20194;-70
2022/08/26 01:19:42;;;;;;;9.75;8.85;;;;;;;;;;5141071;27;20202;-70
2022/08/26 01:22:12;;;;;;;9.30;8.30;;;;;;;;;;5141611;27;20202;-70
2022/08/26 01:24:41;;;;;;;8.93;8.13;;;;;;;;;;5141216;27;20267;-70
2022/08/26 01:27:10;;;;;;;9.07;8.27;;;;;;;;;;5141692;27;20291;-70
2022/08/26 01:29:39;;;;;;;9.15;8.30;;;;;;;;;;5141098;27;20290;-70
2022/08/26 01:32:08;;;;;;;8.95;8.15;;;;;;;;;;5139328;27;20263;-70
2022/08/26 01:34:36;;;;;;;9.90;8.43;;;;;;;;;;5140773;27;20203;-69
2022/08/26 01:37:06;;;;;;;10.05;8.27;;;;;;;;;;5141385;27;20198;-69
2022/08/26 01:39:35;;;;;;;8.68;7.82;;;;;;;;;;5140907;27;20210;-69
2022/08/26 01:42:06;;;;;;;9.18;8.40;;;;;;;;;;5141118;27;20504;-69
2022/08/26 01:44:36;;;;;;;9.40;8.60;;;;;;;;;;5141081;27;20202;-70
2022/08/26 01:47:04;;;;;;;9.32;8.43;;;;;;;;;;5140737;27;20261;-70
2022/08/26 01:49:31;;;;;;;9.77;8.77;;;;;;;;;;5140742;27;20203;-70
2022/08/26 01:51:59;;;;;;;9.90;8.48;;;;;;;;;;5140771;27;20202;-69
2022/08/26 01:54:26;;;;;;;9.68;8.18;;;;;;;;;;5140885;27;20205;-69
2022/08/26 01:56:54;;;;;;;8.82;8.00;;;;;;;;;;5140714;27;20206;-69
2022/08/26 01:59:24;;;;;;;9.25;8.38;;;;;;;;;;5128802;27;20225;-69
2022/08/26 02:01:51;;;;;;;9.88;8.10;;;;;;;;;;5139510;27;20297;-69
2022/08/26 02:04:22;;;;;;;8.90;8.00;;;;;;;;;;5140172;27;20202;-69
2022/08/26 02:06:49;;;;;;;9.00;8.18;;;;;;;;;;5141047;27;20222;-69
2022/08/26 02:09:17;;;;;;;9.00;8.10;;;;;;;;;;5140181;27;20206;-69
2022/08/26 02:11:45;;;;;;;9.25;8.43;;;;;;;;;;5140842;27;20203;-69
2022/08/26 02:14:15;;;;;;;9.55;8.65;;;;;;;;;;5140422;27;20209;-70
2022/08/26 02:16:47;;;;;;;9.70;8.60;;;;;;;;;;5140668;27;20210;-70
2022/08/26 02:19:16;;;;;;;9.13;8.23;;;;;;;;;;5140116;27;20210;-70
2022/08/26 02:21:43;;;;;;;9.25;8.35;;;;;;;;;;5140755;27;20211;-70
2022/08/26 02:24:12;;;;;;;9.27;8.40;;;;;;;;;;5140563;27;20267;-70
2022/08/26 02:26:39;;;;;;;8.57;7.88;;;;;;;;;;5137808;27;20226;-70
2022/08/26 02:29:09;;;;;;;9.10;8.30;;;;;;;;;;5139490;27;20206;-70
2022/08/26 02:31:36;;;;;;;8.70;7.85;;;;;;;;;;5140638;27;20605;-69
2022/08/26 02:34:12;;;;;;;9.70;8.60;;;;;;;;;;5139959;27;20202;-69
2022/08/26 02:36:40;;;;;;;10.00;8.73;;;;;;;;;;5140231;27;20198;-69
2022/08/26 02:39:08;;;;;;;9.23;8.40;;;;;;;;;;5139519;27;20612;-70
2022/08/26 02:41:35;;;;;;;9.00;8.18;;;;;;;;;;5139755;27;20238;-70
2022/08/26 02:44:02;;;;;;;9.10;8.20;;;;;;;;;;5139946;27;20202;-70
2022/08/26 02:46:30;;;;;;;9.30;8.50;;;;;;;;;;5139862;27;20202;-70
2022/08/26 02:48:57;;;;;;;9.25;8.35;;;;;;;;;;5139990;27;20496;-70
2022/08/26 02:51:26;;;;;;;9.68;8.75;;;;;;;;;;5139966;27;20473;-69
2022/08/26 02:53:54;;;;;;;9.07;8.10;;;;;;;;;;5139002;27;20528;-69
2022/08/26 02:56:22;;;;;;;10.02;8.48;;;;;;;;;;5139461;27;20210;-70
2022/08/26 02:58:49;;;;;;;9.00;8.10;;;;;;;;;;5139539;27;20574;-70
2022/08/26 03:01:20;;;;;;;8.52;7.60;;;;;;;;;;5140162;27;20210;-70
2022/08/26 03:03:48;;;;;;;10.27;8.52;;;;;;;;;;5139857;27;20304;-69
2022/08/26 03:06:15;;;;;;;9.05;8.27;;;;;;;;;;5139582;27;20213;-69
2022/08/26 03:08:44;;;;;;;8.60;7.85;;;;;;;;;;5139369;27;20294;-69
2022/08/26 03:11:12;;;;;;;8.85;7.97;;;;;;;;;;5139523;27;20206;-69
2022/08/26 03:13:39;;;;;;;8.63;7.90;;;;;;;;;;5139654;27;20263;-70
2022/08/26 03:16:07;;;;;;;8.40;7.70;;;;;;;;;;5139646;27;20240;-70
2022/08/26 03:18:35;;;;;;;8.52;7.80;;;;;;;;;;5139431;27;20206;-69
2022/08/26 03:21:05;;;;;;;8.73;7.82;;;;;;;;;;5138937;27;20194;-69
2022/08/26 03:23:33;;;;;;;9.73;7.50;;;;;;;;;;5126803;27;20581;-69
2022/08/26 03:26:02;;;;;;;8.63;7.82;;;;;;;;;;5134360;27;20228;-69
2022/08/26 03:28:30;;;;;;;9.23;8.27;;;;;;;;;;5138984;27;20541;-69
2022/08/26 03:30:56;;;;;;;9.48;7.68;;;;;;;;;;5139123;27;20206;-69
2022/08/26 03:33:24;;;;;;;8.60;7.88;;;;;;;;;;5139269;27;20194;-69
2022/08/26 03:35:52;;;;;;;8.48;7.75;;;;;;;;;;5138821;27;20202;-69
2022/08/26 03:38:19;;;;;;;8.65;7.88;;;;;;;;;;5138488;27;20198;-69
2022/08/26 03:40:46;;;;;;;9.10;8.30;;;;;;;;;;5138390;27;20202;-69
2022/08/26 03:43:16;;;;;;;9.15;8.25;;;;;;;;;;5139058;27;20691;-70
2022/08/26 03:45:43;;;;;;;8.88;7.97;;;;;;;;;;5138523;27;20652;-70
2022/08/26 03:48:11;;;;;;;8.65;7.55;;;;;;;;;;5138035;27;20271;-70
2022/08/26 03:50:38;;;;;;;8.75;7.93;;;;;;;;;;5138664;27;20202;-69
2022/08/26 03:53:06;;;;;;;9.07;8.20;;;;;;;;;;5138167;27;20267;-69
2022/08/26 03:55:33;;;;;;;8.95;8.05;;;;;;;;;;5138162;27;20202;-69
2022/08/26 03:58:01;;;;;;;8.75;8.00;;;;;;;;;;5137851;27;20255;-70
2022/08/26 04:00:30;;;;;;;9.20;8.27;;;;;;;;;;5137851;27;20309;-70
2022/08/26 04:02:58;;;;;;;8.70;7.95;;;;;;;;;;5138001;27;20291;-70
2022/08/26 04:05:25;;;;;;;9.57;8.25;;;;;;;;;;5138779;27;20210;-70
2022/08/26 04:07:53;;;;;;;8.68;7.88;;;;;;;;;;5138046;27;20225;-69
2022/08/26 04:10:22;;;;;;;8.40;7.75;;;;;;;;;;5138408;27;20203;-69
2022/08/26 04:12:50;;;;;;;8.95;8.15;;;;;;;;;;5138218;27;20300;-70
2022/08/26 04:15:18;;;;;;;8.57;7.80;;;;;;;;;;5138168;27;20222;-70
2022/08/26 04:17:47;;;;;;;8.57;7.78;;;;;;;;;;5138261;27;20639;-70
2022/08/26 04:20:16;;;;;;;8.07;7.38;;;;;;;;;;5137992;28;20202;-69
2022/08/26 04:22:44;;;;;;;8.52;7.82;;;;;;;;;;5138401;27;20435;-69
2022/08/26 04:25:12;;;;;;;7.95;7.20;;;;;;;;;;5141375;27;20254;-70
2022/08/26 04:27:39;;;;;;;8.43;7.63;;;;;;;;;;5129853;27;20286;-70
2022/08/26 04:30:07;;;;;;;8.70;8.00;;;;;;;;;;5142017;27;20271;-70
2022/08/26 04:32:35;;;;;;;8.70;7.82;;;;;;;;;;5141756;27;20205;-70
2022/08/26 04:35:04;;;;;;;8.93;7.80;;;;;;;;;;5141978;27;20446;-70
2022/08/26 04:37:32;;;;;;;8.35;7.60;;;;;;;;;;5142472;27;20282;-69
2022/08/26 04:39:59;;;;;;;9.20;8.30;;;;;;;;;;5141825;27;20202;-69
2022/08/26 04:42:28;;;;;;;8.85;8.10;;;;;;;;;;5140968;27;20302;-69
2022/08/26 04:44:55;;;;;;;8.80;8.02;;;;;;;;;;5140495;27;20211;-69
2022/08/26 04:47:23;;;;;;;8.63;7.90;;;;;;;;;;5141063;27;20231;-69
2022/08/26 04:49:52;;;;;;;8.60;7.85;;;;;;;;;;5140448;27;20210;-69
2022/08/26 04:52:20;;;;;;;9.00;8.25;;;;;;;;;;5140169;27;20289;-69
2022/08/26 04:54:48;;;;;;;8.43;7.65;;;;;;;;;;5139883;27;20254;-69
2022/08/26 04:57:15;;;;;;;8.48;7.78;;;;;;;;;;5141153;27;20574;-69
2022/08/26 04:59:43;;;;;;;8.07;7.38;;;;;;;;;;5140487;27;20203;-70
2022/08/26 05:02:10;;;;;;;8.02;7.32;;;;;;;;;;5140646;27;20209;-69
2022/08/26 05:04:39;;;;;;;8.10;7.30;;;;;;;;;;5140435;27;20267;-70
2022/08/26 05:07:06;;;;;;;8.48;7.68;;;;;;;;;;5140257;27;20233;-70
2022/08/26 05:09:35;;;;;;;9.30;7.70;;;;;;;;;;5137896;27;20744;-70
2022/08/26 05:12:03;;;;;;;9.23;8.32;;;;;;;;;;5141426;27;20225;-69
2022/08/26 05:14:30;;;;;;;8.35;7.65;;;;;;;;;;5140902;27;20206;-70
2022/08/26 05:16:58;;;;;;;8.23;7.57;;;;;;;;;;5140543;27;20202;-69
2022/08/26 05:19:25;;;;;;;8.02;7.32;;;;;;;;;;5140578;27;20194;-69
2022/08/26 05:21:53;;;;;;;7.93;7.25;;;;;;;;;;5140182;27;20282;-70
2022/08/26 05:24:20;;;;;;;8.68;7.88;;;;;;;;;;5140564;27;20217;-69
2022/08/26 05:26:49;;;;;;;8.73;7.78;;;;;;;;;;5140226;27;20266;-70
2022/08/26 05:29:16;;;;;;;9.07;8.18;;;;;;;;;;5140438;27;20221;-69
2022/08/26 05:31:43;;;;;;;9.07;8.27;;;;;;;;;;5140428;27;20210;-70
2022/08/26 05:34:10;;;;;;;8.35;7.63;;;;;;;;;;5140455;27;20213;-70
2022/08/26 05:36:39;;;;;;;8.20;7.50;;;;;;;;;;5131868;27;20199;-70
2022/08/26 05:39:06;;;;;;;9.00;7.43;;;;;;;;;;5135803;27;20198;-69
2022/08/26 05:41:36;;;;;;;7.70;7.10;;;;;;;;;;5139420;27;20264;-69
2022/08/26 05:44:05;;;;;;;7.50;6.90;;;;;;;;;;5139228;27;20214;-70
2022/08/26 05:46:33;;;;;;;8.10;7.30;;;;;;;;;;5138175;27;20198;-70
2022/08/26 05:49:01;;;;;;;8.32;7.05;;;;;;;;;;5140235;27;20233;-69
2022/08/26 05:51:28;;;;;;;9.05;7.50;;;;;;;;;;5139649;27;20225;-69
2022/08/26 05:53:56;;;;;;;7.82;7.13;;;;;;;;;;5139083;27;20237;-69
2022/08/26 05:56:26;;;;;;;8.63;7.43;;;;;;;;;;5139044;27;20705;-69
2022/08/26 05:58:53;;;;;;;8.15;7.45;;;;;;;;;;5139200;27;20191;-70
2022/08/26 06:01:24;;;;;;;9.05;8.25;;;;;;;;;;5139358;27;20209;-69
2022/08/26 06:03:52;;;;;;;8.23;7.57;;;;;;;;;;5132299;27;20203;-70
2022/08/26 06:06:20;;;;;;;9.05;7.75;;;;;;;;;;5127768;27;20642;-70
2022/08/26 06:08:48;;;;;;;9.15;8.32;;;;;;;;;;5139712;27;20234;-69
2022/08/26 06:11:16;;;;;;;9.00;7.80;;;;;;;;;;5139091;27;20202;-69
2022/08/26 06:13:44;;;;;;;9.27;7.57;;;;;;;;;;5138507;27;20761;-69
2022/08/26 06:16:12;;;;;;;8.25;7.55;;;;;;;;;;5138545;27;20203;-70
2022/08/26 06:18:45;;;;;;;10.70;8.63;;;;;;;;;;5138746;27;20205;-69
2022/08/26 06:21:14;;;;;;;9.15;8.27;;;;;;;;;;5138539;27;20267;-70
2022/08/26 06:26:26;;;;;;;9.65;8.45;;;;;;;;;;5138023;27;20335;-69
2022/08/26 06:28:54;;;;;;;9.23;8.15;;;;;;;;;;5137872;27;20506;-70
2022/08/26 06:31:22;;;;;;;9.45;8.52;;;;;;;;;;5138333;27;20205;-70
2022/08/26 06:33:51;;;;;;;9.73;8.73;;;;;;;;;;5137721;27;20281;-69
2022/08/26 06:36:19;;;;;;;12.32;9.15;;;;;;;;;;5138567;27;20202;-69
2022/08/26 06:38:47;;;;;;;9.80;8.77;;;;;;;;;;5139350;27;20198;-69
2022/08/26 06:41:14;;;;;;;9.70;8.70;;;;;;;;;;5137734;27;20259;-70
2022/08/26 06:43:42;;;;;;;9.23;8.32;;;;;;;;;;5138653;27;20209;-69
2022/08/26 06:46:10;;;;;;;8.85;8.07;;;;;;;;;;5137696;27;20692;-69
2022/08/26 06:48:38;;;;;;;9.77;8.93;;;;;;;;;;5137517;27;20226;-69
2022/08/26 06:51:07;;;;;;;9.23;8.32;;;;;;;;;;5132794;27;20285;-69
2022/08/26 06:53:35;;;;;;;9.05;8.25;;;;;;;;;;5121764;27;20198;-69
2022/08/26 06:56:03;;;;;;;9.20;8.40;;;;;;;;;;5136443;27;20255;-70
2022/08/26 06:58:31;;;;;;;8.75;7.95;;;;;;;;;;5136049;27;20285;-69
2022/08/26 07:00:58;;;;;;;8.35;7.63;;;;;;;;;;5136499;27;20243;-70
2022/08/26 07:03:25;;;;;;;8.48;7.78;;;;;;;;;;5137166;27;20206;-69
2022/08/26 07:05:53;;;;;;;8.55;7.70;;;;;;;;;;5137453;27;20202;-69
2022/08/26 07:08:22;;;;;;;8.45;7.80;;;;;;;;;;5137098;27;20226;-70
2022/08/26 07:10:50;;;;;;;8.90;8.10;;;;;;;;;;5137468;27;20301;-69
2022/08/26 07:13:17;;;;;;;8.98;8.10;;;;;;;;;;5137124;27;20340;-69
2022/08/26 07:15:44;;;;;;;8.55;7.80;;;;;;;;;;5136763;27;20218;-69
2022/08/26 07:18:11;;;;;;;8.48;7.78;;;;;;;;;;5136110;27;20475;-69
2022/08/26 07:20:40;;;;;;;9.00;8.20;;;;;;;;;;5136750;27;20209;-69
2022/08/26 07:23:08;;;;;;;10.10;8.32;;;;;;;;;;5137347;27;20617;-70
2022/08/26 07:25:38;;;;;;;9.65;8.75;;;;;;;;;;5137033;27;20466;-69
2022/08/26 07:28:05;;;;;;;10.35;8.73;;;;;;;;;;5116691;28;20230;-69
2022/08/26 07:30:33;;;;;;;10.25;9.02;;;;;;;;;;5116870;28;20210;-69
2022/08/26 07:33:00;;;;;;;9.32;8.40;;;;;;;;;;5116297;28;20213;-69
2022/08/26 07:35:28;;;;;;;11.93;9.43;;;;;;;;;;5116626;28;20206;-69
2022/08/26 07:37:55;;;;;;;9.50;8.60;;;;;;;;;;5116522;28;20501;-69
2022/08/26 07:40:23;;;;;;;10.07;8.82;;;;;;;;;;5115686;28;20259;-70
2022/08/26 07:42:51;;;;;;;9.23;8.48;;;;;;;;;;5115321;28;20233;-70
2022/08/26 07:45:18;;;;;;;9.23;8.40;;;;;;;;;;5116167;28;20268;-70
2022/08/26 07:47:46;;;;;;;9.27;8.43;;;;;;;;;;5114856;28;20202;-70
2022/08/26 07:50:14;;;;;;;9.68;8.75;;;;;;;;;;5115692;28;20226;-70
2022/08/26 07:52:42;;;;;;;9.18;8.05;;;;;;;;;;5115922;28;20194;-69
2022/08/26 07:55:10;;;;;;;9.93;9.02;;;;;;;;;;5134899;27;20471;-70
2022/08/26 07:57:40;;;;;;;11.25;10.02;;;;;;;;;;5135400;27;20203;-70
2022/08/26 08:00:12;;;;;;;11.95;10.70;;;;;;;;;;5136133;27;20221;-69
2022/08/26 08:02:40;;;;;;;12.48;10.93;;;;;;;;;;5135367;27;20702;-69
2022/08/26 08:05:08;;;;;;;11.93;10.35;;;;;;;;;;5136055;27;20208;-70
2022/08/26 08:07:35;;;;;;;11.38;10.23;;;;;;;;;;5136112;27;20210;-70
2022/08/26 08:10:04;;;;;;;12.35;10.95;;;;;;;;;;5134841;27;20589;-70
2022/08/26 08:12:32;;;;;;;12.45;11.15;;;;;;;;;;5135145;27;20285;-70
2022/08/26 08:14:59;;;;;;;13.60;11.68;;;;;;;;;;5134178;27;20757;-70
2022/08/26 08:17:28;;;;;;;14.65;11.80;;;;;;;;;;5134673;27;20202;-70
2022/08/26 08:19:56;;;;;;;13.50;11.85;;;;;;;;;;5135273;28;20233;-70
2022/08/26 08:22:28;;;;;;;14.43;12.07;;;;;;;;;;5116316;28;20195;-70
2022/08/26 08:24:56;;;;;;;13.57;12.13;;;;;;;;;;5130586;27;20202;-70
2022/08/26 08:27:24;;;;;;;13.63;12.23;;;;;;;;;;5134629;27;20210;-69
2022/08/26 08:29:53;;;;;;;13.35;11.75;;;;;;;;;;5134608;28;20320;-70
2022/08/26 08:32:20;;;;;;;13.60;11.93;;;;;;;;;;5134928;27;20305;-70
2022/08/26 08:34:49;;;;;;;13.95;11.63;;;;;;;;;;5134166;28;20297;-70
2022/08/26 08:37:16;;;;;;;15.00;12.30;;;;;;;;;;5134412;27;20206;-70
2022/08/26 08:39:44;;;;;;;14.95;11.80;;;;;;;;;;5134962;28;20205;-70
2022/08/26 08:42:31;;;;;;;14.40;11.80;;;;;;;;;;5134775;27;20337;-70
2022/08/26 08:45:00;;;;;;;14.90;11.90;;;;;;;;;;5135447;27;20194;-70
2022/08/26 08:47:30;;;;;;;15.13;11.88;;;;;;;;;;5135443;27;20267;-70
2022/08/26 08:50:00;;;;;;;16.02;12.07;;;;;;;;;;5132637;28;20260;-70
2022/08/26 08:52:30;;;;;;;14.20;11.18;;;;;;;;;;5134422;28;20206;-70
2022/08/26 08:54:57;;;;;;;13.50;11.35;;;;;;;;;;5133893;28;20250;-70
2022/08/26 08:57:28;;;;;;;16.70;12.20;;;;;;;;;;5134953;28;20202;-70
2022/08/26 09:00:00;;;;;;;13.68;11.95;;;;;;;;;;5133650;28;20207;-70
2022/08/26 09:02:30;;;;;;;12.85;11.52;;;;;;;;;;5117081;28;20203;-70
2022/08/26 09:05:09;;;;;;;15.05;11.75;;;;;;;;;;5135094;27;20202;-70
2022/08/26 09:07:38;;;;;;;17.60;11.52;;;;;;;;;;5134302;27;20202;-70
2022/08/26 09:10:17;;;;;;;14.68;11.65;;;;;;;;;;5136673;27;20290;-70
2022/08/26 09:12:46;;;;;;;16.55;11.52;;;;;;;;;;5138711;27;20248;-70
2022/08/26 09:15:17;;;;;;;16.70;11.32;;;;;;;;;;5138030;27;20248;-70
2022/08/26 09:17:48;;;;;;;15.35;11.75;;;;;;;;;;5117687;28;20232;-70
2022/08/26 09:20:21;;;;;;;14.65;11.77;;;;;;;;;;5117316;28;20210;-70
2022/08/26 09:22:50;;;;;;;12.55;11.30;;;;;;;;;;5118364;28;20203;-70
2022/08/26 09:25:17;;;;;;;13.40;11.50;;;;;;;;;;5118324;28;20302;-70
2022/08/26 09:27:46;;;;;;;13.35;11.57;;;;;;;;;;5120504;27;20214;-70
2022/08/26 09:30:14;;;;;;;11.93;10.50;;;;;;;;;;5138121;27;20248;-70
2022/08/26 09:32:43;;;;;;;13.57;11.27;;;;;;;;;;5138245;27;20206;-70
2022/08/26 09:35:23;;;;;;;14.18;11.10;;;;;;;;;;5137229;27;20296;-69
2022/08/26 09:37:52;;;;;;;12.38;11.13;;;;;;;;;;5136749;27;20202;-69
2022/08/26 09:40:25;;;;;;;13.23;10.98;;;;;;;;;;5137790;27;20206;-70
2022/08/26 09:43:07;;;;;;;15.07;11.27;;;;;;;;;;5135250;27;20246;-70
2022/08/26 09:45:35;;;;;;;11.95;10.20;;;;;;;;;;5129147;27;20451;-69
2022/08/26 09:48:02;;;;;;;14.32;10.75;;;;;;;;;;5137235;27;20221;-69
2022/08/26 09:50:31;;;;;;;14.30;10.50;;;;;;;;;;5136883;27;20540;-69
2022/08/26 09:53:10;;;;;;;14.73;10.98;;;;;;;;;;5137135;27;20203;-69
2022/08/26 09:55:40;;;;;;;14.77;10.88;;;;;;;;;;5137489;27;20577;-68
2022/08/26 09:58:12;;;;;;;13.88;11.48;;;;;;;;;;5136783;27;20529;-69
2022/08/26 10:00:42;;;;;;;14.70;11.35;;;;;;;;;;5137172;27;20227;-69
2022/08/26 10:03:11;;;;;;;15.90;11.35;;;;;;;;;;5136472;27;20209;-69
2022/08/26 10:05:41;;;;;;;14.30;10.80;;;;;;;;;;5137147;27;20202;-69
2022/08/26 10:08:23;;;;;;;13.70;10.63;;;;;;;;;;5137289;27;20237;-70
2022/08/26 10:10:54;;;;;;;17.92;11.23;;;;;;;;;;5133363;27;20226;-69
2022/08/26 10:13:24;;;;;;;15.02;10.75;;;;;;;;;;5137193;27;20195;-69
2022/08/26 10:15:56;;;;;;;13.55;10.70;;;;;;;;;;5137028;27;20209;-69
2022/08/26 10:18:28;;;;;;;12.82;10.80;;;;;;;;;;5137302;27;20218;-69
2022/08/26 10:21:01;;;;;;;12.05;10.57;;;;;;;;;;5137182;27;20744;-69
2022/08/26 10:23:30;;;;;;;12.82;11.30;;;;;;;;;;5137413;27;20206;-69
2022/08/26 10:26:02;;;;;;;15.32;10.80;;;;;;;;;;5135216;27;20274;-69
2022/08/26 10:28:32;;;;;;;15.02;11.70;;;;;;;;;;5136722;27;20241;-69
2022/08/26 10:31:02;;;;;;;14.30;11.13;;;;;;;;;;5136195;27;20226;-69
2022/08/26 10:33:29;;;;;;;15.85;11.73;;;;;;;;;;5135641;27;20614;-69
2022/08/26 10:35:59;;;;;;;13.98;11.43;;;;;;;;;;5136492;27;20202;-69
2022/08/26 10:38:29;;;;;;;12.77;10.82;;;;;;;;;;5136578;27;20621;-70
2022/08/26 10:40:59;;;;;;;11.88;10.63;;;;;;;;;;5136153;27;20279;-69
2022/08/26 10:43:30;;;;;;;12.60;10.57;;;;;;;;;;5112947;28;20659;-69
2022/08/26 10:46:01;;;;;;;13.10;10.43;;;;;;;;;;5115215;28;20263;-69
2022/08/26 10:48:33;;;;;;;11.60;10.30;;;;;;;;;;5114648;28;20213;-70
2022/08/26 10:51:02;;;;;;;12.02;10.32;;;;;;;;;;5115425;28;20584;-69
2022/08/26 10:53:32;;;;;;;14.13;11.23;;;;;;;;;;5117178;27;20297;-70
2022/08/26 10:56:01;;;;;;;14.27;10.82;;;;;;;;;;5094748;28;20269;-69
2022/08/26 10:58:37;;;;;;;12.05;10.82;;;;;;;;;;5094303;28;20269;-70
2022/08/26 11:03:57;;;;;;;13.93;10.68;;;;;;;;;;5094298;28;20187;-69
2022/08/26 11:06:26;;;;;;;11.95;10.68;;;;;;;;;;5094125;28;20215;-69
2022/08/26 11:08:55;;;;;;;12.98;10.63;;;;;;;;;;5094025;28;20583;-70
2022/08/26 11:11:53;;;;;;;15.80;10.98;;;;;;;;;;5107604;28;20251;-69
2022/08/26 11:14:37;;;;;;;11.63;9.95;;;;;;;;;;5051602;28;20205;-69
2022/08/26 11:17:04;;;;;;;13.02;10.38;;;;;;;;;;5106413;28;20637;-70
2022/08/26 11:19:50;;;;;;;10.93;9.77;;;;;;;;;;5114104;28;20252;-69
2022/08/26 11:22:25;;;;;;;13.32;10.18;;;;;;;;;;5113511;28;20264;-70
2022/08/26 11:25:10;;;;;;;13.77;10.10;;;;;;;;;;5113323;28;20586;-70
2022/08/26 11:28:02;;;;;;;11.38;9.73;;;;;;;;;;5113260;28;20568;-69
2022/08/26 11:30:53;;;;;;;12.18;9.77;;;;;;;;;;5113872;28;20329;-70
2022/08/26 11:33:39;;;;;;;11.18;9.95;;;;;;;;;;5102770;28;20203;-69
2022/08/26 11:36:07;;;;;;;12.38;9.60;;;;;;;;;;5112935;28;20245;-69
2022/08/26 11:38:35;;;;;;;11.73;10.00;;;;;;;;;;5113360;28;20198;-69
2022/08/26 11:41:10;;;;;;;11.38;10.07;;;;;;;;;;5114262;27;20409;-70
2022/08/26 11:43:39;;;;;;;11.63;9.63;;;;;;;;;;5112820;28;20214;-70
2022/08/26 11:46:09;;;;;;;12.98;9.93;;;;;;;;;;5114564;28;20203;-69
2022/08/26 11:48:37;;;;;;;10.77;9.73;;;;;;;;;;5114744;28;20571;-70
2022/08/26 11:51:05;;;;;;;15.40;10.15;;;;;;;;;;5113150;28;20264;-70
2022/08/26 11:53:35;;;;;;;11.90;10.70;;;;;;;;;;5112938;28;20256;-70
2022/08/26 11:56:05;;;;;;;11.38;9.45;;;;;;;;;;5113772;28;20567;-70
2022/08/26 11:58:33;;;;;;;13.57;9.85;;;;;;;;;;5113044;28;20207;-71
2022/08/26 12:01:01;;;;;;;10.75;9.73;;;;;;;;;;5114408;28;20229;-72
2022/08/26 12:03:35;;;;;;;12.40;9.25;;;;;;;;;;5112192;28;20210;-70
2022/08/26 12:06:03;;;;;;;15.77;9.40;;;;;;;;;;5113612;28;20226;-70
2022/08/26 12:08:33;;;;;;;12.90;9.18;;;;;;;;;;5113610;28;20202;-71
2022/08/26 12:11:08;;;;;;;11.40;8.95;;;;;;;;;;5113310;28;20230;-71
2022/08/26 12:13:37;;;;;;;11.95;8.95;;;;;;;;;;5113348;28;20264;-71
2022/08/26 12:16:05;;;;;;;12.55;9.48;;;;;;;;;;5112711;28;20494;-71
2022/08/26 12:18:34;;;;;;;10.10;9.07;;;;;;;;;;5112350;28;20211;-70
2022/08/26 12:21:02;;;;;;;11.48;9.18;;;;;;;;;;5113220;28;20260;-70
2022/08/26 12:23:40;;;;;;;11.70;9.30;;;;;;;;;;5111096;28;20242;-70
2022/08/26 12:26:11;;;;;;;12.13;9.25;;;;;;;;;;5113210;28;20210;-70
2022/08/26 12:28:42;;;;;;;12.27;8.93;;;;;;;;;;5113888;28;20455;-70
2022/08/26 12:31:10;;;;;;;10.70;8.63;;;;;;;;;;5113550;28;20226;-70
2022/08/26 12:33:37;;;;;;;10.60;8.68;;;;;;;;;;5111738;28;20195;-70
2022/08/26 12:36:06;;;;;;;11.90;9.02;;;;;;;;;;5111312;28;20263;-71
2022/08/26 12:38:36;;;;;;;10.32;8.85;;;;;;;;;;5111970;28;20550;-71
2022/08/26 12:41:04;;;;;;;11.80;9.10;;;;;;;;;;5111661;27;20306;-71
2022/08/26 12:43:40;;;;;;;10.45;8.80;;;;;;;;;;5112918;28;20207;-71
2022/08/26 12:46:09;;;;;;;10.30;9.13;;;;;;;;;;5115895;28;20210;-70
2022/08/26 12:48:37;;;;;;;9.82;8.80;;;;;;;;;;5116889;28;20199;-70
2022/08/26 12:51:07;;;;;;;11.80;8.95;;;;;;;;;;5115646;28;20634;-70
2022/08/26 12:53:36;;;;;;;12.07;10.00;;;;;;;;;;5116603;28;20203;-70
2022/08/26 12:56:04;;;;;;;10.88;9.18;;;;;;;;;;5116435;28;20207;-70
2022/08/26 12:58:33;;;;;;;14.38;9.82;;;;;;;;;;5116430;28;20493;-70
2022/08/26 13:01:15;;;;;;;12.18;9.32;;;;;;;;;;5116415;28;20202;-71
2022/08/26 13:03:44;;;;;;;10.25;9.32;;;;;;;;;;5115150;28;20214;-71
2022/08/26 13:06:17;;;;;;;10.73;9.13;;;;;;;;;;5116949;28;20281;-71
2022/08/26 13:08:45;;;;;;;11.13;8.90;;;;;;;;;;5116398;28;20202;-70
2022/08/26 13:11:14;;;;;;;12.02;9.55;;;;;;;;;;5116460;28;20230;-70
2022/08/26 13:13:41;;;;;;;12.88;9.73;;;;;;;;;;5116901;28;20243;-70
2022/08/26 13:16:09;;;;;;;12.75;9.68;;;;;;;;;;5117505;28;20272;-70
2022/08/26 13:18:36;;;;;;;13.52;9.70;;;;;;;;;;5116771;28;20203;-71
2022/08/26 13:21:11;;;;;;;11.32;9.23;;;;;;;;;;5116262;28;20255;-70
2022/08/26 13:23:39;;;;;;;13.68;9.95;;;;;;;;;;5116934;28;20255;-71
2022/08/26 13:26:06;;;;;;;12.02;9.45;;;;;;;;;;5115801;28;20202;-71
2022/08/26 13:28:34;;;;;;;12.90;9.70;;;;;;;;;;5115681;28;20201;-70
2022/08/26 13:31:01;;;;;;;14.02;9.60;;;;;;;;;;5115137;28;20234;-70
2022/08/26 13:33:28;;;;;;;10.88;9.73;;;;;;;;;;5116972;28;20199;-71
2022/08/26 13:35:55;;;;;;;11.82;9.45;;;;;;;;;;5116758;28;20207;-70
2022/08/26 13:38:24;;;;;;;12.82;9.10;;;;;;;;;;5116118;28;20210;-70
2022/08/26 13:40:51;;;;;;;14.82;9.65;;;;;;;;;;5115811;28;20210;-70
2022/08/26 13:43:19;;;;;;;10.45;9.35;;;;;;;;;;5135547;27;20238;-70
2022/08/26 13:45:48;;;;;;;10.18;9.15;;;;;;;;;;5136429;27;20198;-70
2022/08/26 13:48:17;;;;;;;11.35;9.63;;;;;;;;;;5137927;27;20258;-71
2022/08/26 13:50:45;;;;;;;11.15;9.70;;;;;;;;;;5136448;27;20218;-70
2022/08/26 13:53:12;;;;;;;11.38;9.23;;;;;;;;;;5136675;27;20710;-70
2022/08/26 13:55:41;;;;;;;10.80;9.70;;;;;;;;;;5125389;27;20629;-71
2022/08/26 13:58:09;;;;;;;12.93;10.00;;;;;;;;;;5115894;28;20209;-70
2022/08/26 14:00:38;;;;;;;13.02;10.07;;;;;;;;;;5115326;28;20537;-70
2022/08/26 14:03:05;;;;;;;11.75;9.00;;;;;;;;;;5116406;28;20707;-71
2022/08/26 14:05:33;;;;;;;10.93;9.25;;;;;;;;;;5115043;28;20202;-70
2022/08/26 14:08:00;;;;;;;10.82;9.73;;;;;;;;;;5116941;28;20203;-71
2022/08/26 14:10:28;;;;;;;10.70;9.60;;;;;;;;;;5115556;28;20831;-70
2022/08/26 14:12:57;;;;;;;11.02;9.57;;;;;;;;;;5116035;28;20248;-70
2022/08/26 14:15:24;;;;;;;11.55;9.65;;;;;;;;;;5115667;28;20210;-70
2022/08/26 14:17:51;;;;;;;10.73;9.52;;;;;;;;;;5116750;28;20248;-70
2022/08/26 14:20:24;;;;;;;10.95;9.60;;;;;;;;;;5116572;28;20191;-70
2022/08/26 14:22:51;;;;;;;11.35;10.10;;;;;;;;;;5124140;27;20198;-70
2022/08/26 14:25:20;;;;;;;10.80;9.63;;;;;;;;;;5136431;27;20209;-70
2022/08/26 14:27:47;;;;;;;12.23;9.30;;;;;;;;;;5136334;27;20300;-70
2022/08/26 14:30:16;;;;;;;13.15;9.75;;;;;;;;;;5136306;27;20202;-70
2022/08/26 14:32:44;;;;;;;12.07;9.95;;;;;;;;;;5136193;27;20709;-70
2022/08/26 14:35:13;;;;;;;10.45;9.23;;;;;;;;;;5135849;27;20274;-70
2022/08/26 14:37:41;;;;;;;13.18;9.18;;;;;;;;;;5135673;27;20210;-71
2022/08/26 14:40:09;;;;;;;10.82;9.70;;;;;;;;;;5135333;27;20621;-70
2022/08/26 14:42:37;;;;;;;10.52;9.52;;;;;;;;;;5135145;27;20307;-70
2022/08/26 14:45:05;;;;;;;11.45;9.10;;;;;;;;;;5134849;27;20210;-71
2022/08/26 14:47:34;;;;;;;10.55;8.85;;;;;;;;;;5135334;27;20211;-71
2022/08/26 14:50:01;;;;;;;10.50;9.38;;;;;;;;;;5130111;27;20198;-71